Time;durP1;ratioP1;P1;durP2;ratioP2;P2;SDS_P1;SDS_P2;PMS_P1;PMS_P2;Temp;Humidity;BMP_temperature;BMP_pressure;BME280_temperature;BME280_humidity;BME280_pressure;Samples;Min_cycle;Max_cycle;Signal;HPM_P1;HPM_P2
2022/05/22 00:01:04;;;;;;;10.07;5.72;;;;;;;;;;5083452;28;20047;-61
2022/05/22 00:03:30;;;;;;;9.65;5.80;;;;;;;;;;5079139;28;20032;-62
2022/05/22 00:05:56;;;;;;;9.48;5.30;;;;;;;;;;5080191;28;20021;-61
2022/05/22 00:08:22;;;;;;;11.18;5.78;;;;;;;;;;5084216;28;20036;-62
2022/05/22 00:10:48;;;;;;;10.65;5.57;;;;;;;;;;5082293;28;20024;-62
2022/05/22 00:13:14;;;;;;;10.65;6.28;;;;;;;;;;5083692;28;20028;-62
2022/05/22 00:16:36;;;;;;;10.45;5.80;;;;;;;;;;5087581;28;20036;-63
2022/05/22 00:18:26;;;;;;;11.65;5.78;;;;;;;;;;5093488;28;20423;-62
2022/05/22 00:20:52;;;;;;;9.95;5.30;;;;;;;;;;5094961;28;20028;-62
2022/05/22 00:23:18;;;;;;;13.25;5.82;;;;;;;;;;5087681;28;20054;-63
2022/05/22 00:25:44;;;;;;;11.88;5.88;;;;;;;;;;5082643;28;20551;-63
2022/05/22 00:28:10;;;;;;;8.70;5.50;;;;;;;;;;5085180;28;20426;-62
2022/05/22 00:30:36;;;;;;;10.85;5.78;;;;;;;;;;5092718;28;20035;-61
2022/05/22 00:33:02;;;;;;;12.40;5.68;;;;;;;;;;5093526;28;20050;-61
2022/05/22 00:35:28;;;;;;;12.32;5.80;;;;;;;;;;5089101;28;20518;-63
2022/05/22 00:37:54;;;;;;;11.85;6.07;;;;;;;;;;5082868;28;20040;-62
2022/05/22 00:40:20;;;;;;;9.52;6.13;;;;;;;;;;5081499;28;20505;-62
2022/05/22 00:42:50;;;;;;;12.18;5.63;;;;;;;;;;5084214;28;20423;-61
2022/05/22 00:45:16;;;;;;;9.57;5.80;;;;;;;;;;5093117;28;20045;-62
2022/05/22 00:47:42;;;;;;;11.40;5.82;;;;;;;;;;5087263;28;20023;-63
2022/05/22 00:50:08;;;;;;;9.43;5.82;;;;;;;;;;5080567;28;20114;-62
2022/05/22 00:52:37;;;;;;;11.70;5.88;;;;;;;;;;5083034;28;20093;-62
2022/05/22 00:55:16;;;;;;;11.82;5.88;;;;;;;;;;5099705;28;20038;-61
2022/05/22 00:57:45;;;;;;;8.55;5.43;;;;;;;;;;5093527;28;20386;-62
2022/05/22 01:00:13;;;;;;;11.38;5.63;;;;;;;;;;5088694;28;20654;-62
2022/05/22 01:05:24;;;;;;;8.27;5.63;;;;;;;;;;5086477;28;20035;-63
2022/05/22 01:07:51;;;;;;;12.65;5.63;;;;;;;;;;5081816;28;20024;-62
2022/05/22 01:10:17;;;;;;;10.93;5.82;;;;;;;;;;5082472;28;20039;-62
2022/05/22 01:12:45;;;;;;;8.18;5.13;;;;;;;;;;5089905;28;20032;-61
2022/05/22 01:15:13;;;;;;;10.25;5.20;;;;;;;;;;5096338;28;20028;-63
2022/05/22 01:17:40;;;;;;;10.05;5.15;;;;;;;;;;5103049;28;20123;-62
2022/05/22 01:20:07;;;;;;;11.05;5.60;;;;;;;;;;5088499;28;20028;-61
2022/05/22 01:22:32;;;;;;;10.70;5.65;;;;;;;;;;5094258;28;20028;-62
2022/05/22 01:24:58;;;;;;;8.70;5.53;;;;;;;;;;5082275;28;20028;-62
2022/05/22 01:27:25;;;;;;;10.25;5.13;;;;;;;;;;5100119;28;20110;-62
2022/05/22 01:30:02;;;;;;;11.38;5.15;;;;;;;;;;5094568;28;20054;-62
2022/05/22 01:32:28;;;;;;;11.10;5.20;;;;;;;;;;5089964;28;20032;-61
2022/05/22 01:34:54;;;;;;;11.77;5.10;;;;;;;;;;5087490;28;20399;-62
2022/05/22 01:37:20;;;;;;;10.38;5.05;;;;;;;;;;5096934;28;20098;-63
2022/05/22 01:39:46;;;;;;;10.10;5.20;;;;;;;;;;5092931;28;20015;-63
2022/05/22 01:42:12;;;;;;;14.02;5.57;;;;;;;;;;5082962;28;20024;-63
2022/05/22 01:44:38;;;;;;;10.75;4.95;;;;;;;;;;5085305;28;20027;-61
2022/05/22 01:47:04;;;;;;;13.10;5.18;;;;;;;;;;5097298;28;20023;-62
2022/05/22 01:49:30;;;;;;;12.88;5.47;;;;;;;;;;5091260;28;20028;-62
2022/05/22 01:51:56;;;;;;;10.60;4.90;;;;;;;;;;5082173;28;20063;-63
2022/05/22 01:54:22;;;;;;;11.55;5.18;;;;;;;;;;5085940;28;20085;-62
2022/05/22 01:56:49;;;;;;;12.52;5.28;;;;;;;;;;5095572;28;20024;-61
2022/05/22 01:59:15;;;;;;;9.65;4.93;;;;;;;;;;5087341;28;20066;-62
2022/05/22 02:01:41;;;;;;;8.05;4.90;;;;;;;;;;5092319;28;20031;-61
2022/05/22 02:04:07;;;;;;;9.25;4.93;;;;;;;;;;5092150;28;20188;-62
2022/05/22 02:06:33;;;;;;;14.38;5.78;;;;;;;;;;5085472;28;20090;-62
2022/05/22 02:08:59;;;;;;;10.57;5.53;;;;;;;;;;5103764;28;20024;-62
2022/05/22 02:11:25;;;;;;;9.30;5.47;;;;;;;;;;5083619;28;20369;-62
2022/05/22 02:13:51;;;;;;;13.32;5.47;;;;;;;;;;5080291;28;21125;-63
2022/05/22 02:16:17;;;;;;;10.05;5.43;;;;;;;;;;5086634;28;20381;-63
2022/05/22 02:18:44;;;;;;;11.70;5.22;;;;;;;;;;5080076;28;20036;-62
2022/05/22 02:21:10;;;;;;;9.43;5.13;;;;;;;;;;5094880;28;20500;-63
2022/05/22 02:23:36;;;;;;;10.00;5.53;;;;;;;;;;5102008;28;20028;-63
2022/05/22 02:26:02;;;;;;;9.48;5.07;;;;;;;;;;5088272;28;20022;-63
2022/05/22 02:28:28;;;;;;;7.00;4.63;;;;;;;;;;5075583;28;20110;-62
2022/05/22 02:30:57;;;;;;;11.52;5.07;;;;;;;;;;5088222;28;20025;-63
2022/05/22 02:33:23;;;;;;;9.80;4.80;;;;;;;;;;5095514;28;20028;-62
2022/05/22 02:35:51;;;;;;;10.07;5.50;;;;;;;;;;5082954;28;20036;-63
2022/05/22 02:38:17;;;;;;;9.88;5.07;;;;;;;;;;5095548;28;20039;-63
2022/05/22 02:40:44;;;;;;;11.90;5.38;;;;;;;;;;5085308;28;20561;-62
2022/05/22 02:43:10;;;;;;;9.75;5.70;;;;;;;;;;5080533;28;20027;-62
2022/05/22 02:45:37;;;;;;;8.35;5.88;;;;;;;;;;5086156;28;20383;-62
2022/05/22 02:48:03;;;;;;;8.73;6.10;;;;;;;;;;5089537;28;20020;-62
2022/05/22 02:50:30;;;;;;;11.35;6.70;;;;;;;;;;5081602;28;20064;-63
2022/05/22 02:52:56;;;;;;;11.48;6.28;;;;;;;;;;5085297;28;20035;-62
2022/05/22 02:55:22;;;;;;;13.68;6.38;;;;;;;;;;5090205;28;20491;-62
2022/05/22 02:57:48;;;;;;;11.18;6.40;;;;;;;;;;5096116;28;20462;-63
2022/05/22 03:00:16;;;;;;;13.35;6.15;;;;;;;;;;5086859;28;20015;-62
2022/05/22 03:02:42;;;;;;;12.73;5.90;;;;;;;;;;5093291;28;20036;-62
2022/05/22 03:05:08;;;;;;;10.32;5.90;;;;;;;;;;5088625;28;20028;-62
2022/05/22 03:07:37;;;;;;;12.02;5.20;;;;;;;;;;5095337;28;20094;-61
2022/05/22 03:10:03;;;;;;;9.80;5.35;;;;;;;;;;5086502;28;20470;-62
2022/05/22 03:12:29;;;;;;;13.50;5.65;;;;;;;;;;5085985;28;20020;-62
2022/05/22 03:14:57;;;;;;;7.03;5.13;;;;;;;;;;5095659;28;20073;-62
2022/05/22 03:17:24;;;;;;;9.85;5.50;;;;;;;;;;5089791;28;20023;-62
2022/05/22 03:19:50;;;;;;;9.07;5.40;;;;;;;;;;5077513;28;20035;-61
2022/05/22 03:22:16;;;;;;;9.65;5.30;;;;;;;;;;5097331;28;20020;-62
2022/05/22 03:24:42;;;;;;;9.60;5.88;;;;;;;;;;5097783;28;20031;-63
2022/05/22 03:27:10;;;;;;;10.05;5.43;;;;;;;;;;5089041;28;20036;-62
2022/05/22 03:29:36;;;;;;;13.80;5.80;;;;;;;;;;5095576;28;20408;-62
2022/05/22 03:32:02;;;;;;;8.55;5.45;;;;;;;;;;5089952;28;20695;-62
2022/05/22 03:34:28;;;;;;;8.32;5.55;;;;;;;;;;5088723;28;20516;-62
2022/05/22 03:36:54;;;;;;;8.25;5.55;;;;;;;;;;5087286;28;20035;-63
2022/05/22 03:39:20;;;;;;;8.68;5.60;;;;;;;;;;5081215;28;20079;-62
2022/05/22 03:41:46;;;;;;;10.40;5.32;;;;;;;;;;5095909;28;20068;-62
2022/05/22 03:44:12;;;;;;;13.13;5.70;;;;;;;;;;5085029;28;20417;-61
2022/05/22 03:46:38;;;;;;;9.55;5.30;;;;;;;;;;5076839;28;20024;-62
2022/05/22 03:49:04;;;;;;;11.13;5.47;;;;;;;;;;5088204;28;20087;-62
2022/05/22 03:51:30;;;;;;;8.40;5.20;;;;;;;;;;5079774;28;20494;-62
2022/05/22 03:53:56;;;;;;;9.75;5.75;;;;;;;;;;5090123;28;20028;-62
2022/05/22 03:56:22;;;;;;;9.77;5.47;;;;;;;;;;5080079;28;20591;-63
2022/05/22 03:58:48;;;;;;;9.80;5.70;;;;;;;;;;5088067;28;20422;-62
2022/05/22 04:01:15;;;;;;;10.70;5.93;;;;;;;;;;5085246;28;20053;-62
2022/05/22 04:03:41;;;;;;;9.35;6.03;;;;;;;;;;5095212;28;20103;-63
2022/05/22 04:06:08;;;;;;;10.98;5.72;;;;;;;;;;5070936;28;20447;-62
2022/05/22 04:08:35;;;;;;;10.07;5.85;;;;;;;;;;5091854;28;20701;-63
2022/05/22 04:11:08;;;;;;;9.93;5.80;;;;;;;;;;5081283;28;20035;-65
2022/05/22 04:13:34;;;;;;;;;;;;;;;;;;5085909;28;20035;-65
2022/05/22 04:16:00;;;;;;;9.93;6.07;;;;;;;;;;5085053;28;19915;-65
2022/05/22 04:18:26;;;;;;;10.55;6.00;;;;;;;;;;5082187;28;20028;-65
2022/05/22 04:20:52;;;;;;;9.25;5.93;;;;;;;;;;5093310;28;20096;-65
2022/05/22 04:26:03;;;;;;;9.23;6.07;;;;;;;;;;5083869;28;20501;-64
2022/05/22 04:28:30;;;;;;;9.32;6.30;;;;;;;;;;5072509;28;20021;-65
2022/05/22 04:30:56;;;;;;;9.95;6.70;;;;;;;;;;5093980;28;20107;-65
2022/05/22 04:33:22;;;;;;;9.85;7.10;;;;;;;;;;5081881;28;20059;-65
2022/05/22 04:35:48;;;;;;;10.40;7.30;;;;;;;;;;5089041;28;20027;-65
2022/05/22 04:38:14;;;;;;;10.75;7.28;;;;;;;;;;5094512;28;20085;-65
2022/05/22 04:40:41;;;;;;;12.15;7.07;;;;;;;;;;5099424;28;20032;-65
2022/05/22 04:43:09;;;;;;;8.95;6.75;;;;;;;;;;5087693;28;20016;-65
2022/05/22 04:45:35;;;;;;;14.05;7.65;;;;;;;;;;5090303;28;20020;-65
2022/05/22 04:48:01;;;;;;;10.40;7.28;;;;;;;;;;5091713;28;20371;-65
2022/05/22 04:50:30;;;;;;;9.05;7.32;;;;;;;;;;5079604;28;20114;-65
2022/05/22 04:52:56;;;;;;;10.65;7.00;;;;;;;;;;5085422;28;20027;-66
2022/05/22 04:55:22;;;;;;;11.02;6.85;;;;;;;;;;5087779;28;20027;-64
2022/05/22 04:57:48;;;;;;;9.43;7.13;;;;;;;;;;5081064;28;20032;-64
2022/05/22 05:00:14;;;;;;;9.60;7.10;;;;;;;;;;5084739;28;20043;-64
2022/05/22 05:02:40;;;;;;;11.90;7.32;;;;;;;;;;5075304;28;20033;-65
2022/05/22 05:05:08;;;;;;;10.30;7.20;;;;;;;;;;5081686;28;20032;-64
2022/05/22 05:07:35;;;;;;;14.15;8.00;;;;;;;;;;5085233;28;20020;-65
2022/05/22 05:10:00;;;;;;;14.63;8.45;;;;;;;;;;5087679;28;20034;-64
2022/05/22 05:12:26;;;;;;;17.00;8.10;;;;;;;;;;5083962;28;21685;-64
2022/05/22 05:14:52;;;;;;;15.98;9.15;;;;;;;;;;5076225;28;20016;-65
2022/05/22 05:17:19;;;;;;;16.65;9.10;;;;;;;;;;5082293;28;20052;-65
2022/05/22 05:19:45;;;;;;;19.85;8.55;;;;;;;;;;5085873;28;20024;-65
2022/05/22 05:22:11;;;;;;;12.95;8.30;;;;;;;;;;5081645;28;20027;-65
2022/05/22 05:24:38;;;;;;;16.88;8.80;;;;;;;;;;5089854;28;20028;-65
2022/05/22 05:27:04;;;;;;;20.98;9.30;;;;;;;;;;5087575;28;20636;-65
2022/05/22 05:29:30;;;;;;;16.40;8.63;;;;;;;;;;5082623;28;20040;-65
2022/05/22 05:31:56;;;;;;;18.27;8.48;;;;;;;;;;5081564;28;20040;-65
2022/05/22 05:34:22;;;;;;;16.63;8.55;;;;;;;;;;5090865;28;20109;-65
2022/05/22 05:36:48;;;;;;;15.50;8.43;;;;;;;;;;5085423;28;20040;-64
2022/05/22 05:39:14;;;;;;;16.63;9.07;;;;;;;;;;5095216;28;20024;-64
2022/05/22 05:41:40;;;;;;;15.32;8.30;;;;;;;;;;5088213;28;20102;-64
2022/05/22 05:44:07;;;;;;;15.90;8.30;;;;;;;;;;5081293;28;20493;-65
2022/05/22 05:46:36;;;;;;;15.18;8.75;;;;;;;;;;5096673;28;20428;-65
2022/05/22 05:49:06;;;;;;;14.85;8.02;;;;;;;;;;5085649;28;20426;-65
2022/05/22 05:51:35;;;;;;;17.27;8.18;;;;;;;;;;5087923;28;20060;-65
2022/05/22 05:54:01;;;;;;;15.07;7.28;;;;;;;;;;5085444;28;20027;-65
2022/05/22 05:56:27;;;;;;;17.23;8.27;;;;;;;;;;5091986;28;20681;-65
2022/05/22 05:58:53;;;;;;;16.27;8.45;;;;;;;;;;5085610;28;20074;-64
2022/05/22 06:01:19;;;;;;;17.65;7.88;;;;;;;;;;5104214;28;20019;-66
2022/05/22 06:03:45;;;;;;;15.57;8.73;;;;;;;;;;5100951;28;20033;-65
2022/05/22 06:06:12;;;;;;;15.40;8.65;;;;;;;;;;5088482;28;20403;-65
2022/05/22 06:08:39;;;;;;;16.42;8.38;;;;;;;;;;5088485;28;20190;-64
2022/05/22 06:11:05;;;;;;;17.85;8.70;;;;;;;;;;5088181;28;20080;-64
2022/05/22 06:13:31;;;;;;;18.95;8.93;;;;;;;;;;5087893;28;20529;-64
2022/05/22 06:15:58;;;;;;;14.45;8.43;;;;;;;;;;5082482;28;20471;-65
2022/05/22 06:18:24;;;;;;;16.58;8.43;;;;;;;;;;5095532;28;20028;-64
2022/05/22 06:20:50;;;;;;;14.70;7.80;;;;;;;;;;5079940;28;20035;-65
2022/05/22 06:23:16;;;;;;;15.65;8.52;;;;;;;;;;5089062;28;20171;-64
2022/05/22 06:25:44;;;;;;;19.95;9.20;;;;;;;;;;5077068;28;20056;-64
2022/05/22 06:28:17;;;;;;;16.52;8.65;;;;;;;;;;5094046;28;20372;-64
2022/05/22 06:30:44;;;;;;;16.67;8.77;;;;;;;;;;5090241;28;20364;-64
2022/05/22 06:33:12;;;;;;;13.27;8.20;;;;;;;;;;5087177;28;20038;-64
2022/05/22 06:35:46;;;;;;;21.55;9.00;;;;;;;;;;5083891;28;20020;-64
2022/05/22 06:40:57;;;;;;;19.20;9.05;;;;;;;;;;5088335;28;20694;-64
2022/05/22 06:43:23;;;;;;;17.45;8.20;;;;;;;;;;5087365;28;20118;-64
2022/05/22 06:45:52;;;;;;;15.45;8.65;;;;;;;;;;5095663;28;20051;-64
2022/05/22 06:48:18;;;;;;;12.95;8.18;;;;;;;;;;5079899;28;20037;-65
2022/05/22 06:50:44;;;;;;;18.17;8.80;;;;;;;;;;5075094;28;20153;-64
2022/05/22 06:53:10;;;;;;;18.17;7.53;;;;;;;;;;5082681;28;20020;-64
2022/05/22 06:55:36;;;;;;;14.05;7.60;;;;;;;;;;5088289;28;20039;-64
2022/05/22 06:58:02;;;;;;;11.85;6.85;;;;;;;;;;5079888;28;20376;-64
2022/05/22 07:00:30;;;;;;;15.05;7.90;;;;;;;;;;5087186;28;20028;-64
2022/05/22 07:02:56;;;;;;;11.90;6.65;;;;;;;;;;5078904;28;20489;-64
2022/05/22 07:05:22;;;;;;;13.85;8.02;;;;;;;;;;5086249;28;20032;-64
2022/05/22 07:07:48;;;;;;;13.43;7.00;;;;;;;;;;5081865;28;20548;-64
2022/05/22 07:10:14;;;;;;;16.90;7.47;;;;;;;;;;5085914;28;20054;-64
2022/05/22 07:12:41;;;;;;;17.85;8.60;;;;;;;;;;5081659;28;20547;-64
2022/05/22 07:15:07;;;;;;;20.65;8.70;;;;;;;;;;5088169;28;20107;-64
2022/05/22 07:17:34;;;;;;;22.05;8.73;;;;;;;;;;5095794;28;20028;-64
2022/05/22 07:20:00;;;;;;;16.20;8.73;;;;;;;;;;5099140;27;20049;-63
2022/05/22 07:22:26;;;;;;;19.85;9.02;;;;;;;;;;5083185;28;20496;-64
2022/05/22 07:24:52;;;;;;;18.42;8.77;;;;;;;;;;5081100;28;20017;-64
2022/05/22 07:27:18;;;;;;;18.40;9.32;;;;;;;;;;5090873;28;20070;-65
2022/05/22 07:29:45;;;;;;;19.08;9.23;;;;;;;;;;5100686;28;20483;-65
2022/05/22 07:32:10;;;;;;;23.65;9.77;;;;;;;;;;5088523;28;20028;-65
2022/05/22 07:34:38;;;;;;;22.73;9.65;;;;;;;;;;5081940;28;20248;-64
2022/05/22 07:37:06;;;;;;;22.90;8.63;;;;;;;;;;5088678;28;20111;-65
2022/05/22 07:39:32;;;;;;;19.80;8.05;;;;;;;;;;5079809;28;20031;-60
2022/05/22 07:41:58;;;;;;;31.98;17.95;;;;;;;;;;5077703;28;20020;-64
2022/05/22 07:44:24;;;;;;;17.90;8.40;;;;;;;;;;5081672;28;20356;-65
2022/05/22 07:46:50;;;;;;;19.42;8.55;;;;;;;;;;5086150;28;20029;-65
2022/05/22 07:52:06;;;;;;;14.38;6.50;;;;;;;;;;5092115;28;20047;-65
2022/05/22 07:54:39;;;;;;;15.50;6.00;;;;;;;;;;5081618;28;20043;-65
2022/05/22 07:57:05;;;;;;;11.30;5.20;;;;;;;;;;5094493;28;20475;-64
2022/05/22 07:59:35;;;;;;;11.95;5.35;;;;;;;;;;5090788;28;20029;-64
2022/05/22 08:02:02;;;;;;;12.63;5.10;;;;;;;;;;5088147;28;20035;-65
2022/05/22 08:04:28;;;;;;;12.52;5.50;;;;;;;;;;5083350;28;20023;-64
2022/05/22 08:06:54;;;;;;;13.93;5.10;;;;;;;;;;5082694;28;20651;-64
2022/05/22 08:09:20;;;;;;;13.15;5.40;;;;;;;;;;5082316;28;20024;-65
2022/05/22 08:11:46;;;;;;;15.90;5.63;;;;;;;;;;5092842;28;20037;-65
2022/05/22 08:14:13;;;;;;;12.82;5.60;;;;;;;;;;5074601;28;20212;-65
2022/05/22 08:16:40;;;;;;;17.23;6.25;;;;;;;;;;5080697;28;20374;-65
2022/05/22 08:19:06;;;;;;;17.35;6.78;;;;;;;;;;5082751;28;20108;-65
2022/05/22 08:21:32;;;;;;;16.77;6.90;;;;;;;;;;5084295;28;20192;-65
2022/05/22 08:23:59;;;;;;;18.73;7.68;;;;;;;;;;5077762;28;20028;-65
2022/05/22 08:26:26;;;;;;;18.05;6.80;;;;;;;;;;5074988;28;20134;-65
2022/05/22 08:28:52;;;;;;;13.20;5.45;;;;;;;;;;5096794;28;20028;-64
2022/05/22 08:31:18;;;;;;;14.93;5.90;;;;;;;;;;5088541;28;20025;-64
2022/05/22 08:33:44;;;;;;;12.43;5.85;;;;;;;;;;5094063;28;20031;-64
2022/05/22 08:36:10;;;;;;;16.73;6.55;;;;;;;;;;5081393;28;20024;-64
2022/05/22 08:38:36;;;;;;;16.25;7.63;;;;;;;;;;5091280;28;20695;-65
2022/05/22 08:41:13;;;;;;;15.68;6.60;;;;;;;;;;5085829;28;20029;-64
2022/05/22 08:43:58;;;;;;;13.90;6.13;;;;;;;;;;5092529;28;20051;-64
2022/05/22 08:46:36;;;;;;;12.32;6.93;;;;;;;;;;5084309;28;20029;-64
2022/05/22 08:49:10;;;;;;;13.73;6.03;;;;;;;;;;5082655;28;20482;-65
2022/05/22 08:51:41;;;;;;;14.30;5.97;;;;;;;;;;5086729;28;20391;-64
2022/05/22 08:54:13;;;;;;;13.25;6.38;;;;;;;;;;5092731;28;20026;-64
2022/05/22 08:59:30;;;;;;;15.27;6.25;;;;;;;;;;5076922;28;20118;-64
2022/05/22 09:02:15;;;;;;;12.95;5.97;;;;;;;;;;5087854;28;20031;-64
2022/05/22 09:04:44;;;;;;;12.57;5.65;;;;;;;;;;5076332;28;20032;-64
2022/05/22 09:07:13;;;;;;;15.48;5.80;;;;;;;;;;5094784;28;20035;-65
2022/05/22 09:09:40;;;;;;;15.35;5.95;;;;;;;;;;5088390;28;20482;-64
2022/05/22 09:12:12;;;;;;;16.52;5.97;;;;;;;;;;5083177;28;20167;-64
2022/05/22 09:14:44;;;;;;;13.73;5.80;;;;;;;;;;5097960;28;20023;-65
2022/05/22 09:17:18;;;;;;;16.23;6.77;;;;;;;;;;5086949;28;20514;-64
2022/05/22 09:19:50;;;;;;;15.55;6.10;;;;;;;;;;5087882;28;20398;-64
2022/05/22 09:22:37;;;;;;;17.25;5.95;;;;;;;;;;5085886;28;20016;-66
2022/05/22 09:25:08;;;;;;;71.22;49.95;;;;;;;;;;5090023;28;20032;-62
2022/05/22 09:27:49;;;;;;;13.63;5.85;;;;;;;;;;5083504;28;20032;-65
2022/05/22 09:30:28;;;;;;;17.70;5.97;;;;;;;;;;5099933;28;20020;-64
2022/05/22 09:32:54;;;;;;;12.73;5.18;;;;;;;;;;5097486;28;20035;-65
2022/05/22 09:35:20;;;;;;;16.30;6.22;;;;;;;;;;5092637;28;20111;-65
2022/05/22 09:37:58;;;;;;;16.27;6.30;;;;;;;;;;5095805;28;20020;-64
2022/05/22 09:40:32;;;;;;;14.40;5.43;;;;;;;;;;5089211;28;20351;-65
2022/05/22 09:42:57;;;;;;;;;;;;;;;;;;5092771;28;20032;-64
2022/05/22 09:45:38;;;;;;;12.98;7.00;;;;;;;;;;5092923;28;19919;-64
2022/05/22 09:48:12;;;;;;;15.52;6.85;;;;;;;;;;5089161;28;20085;-64
2022/05/22 09:50:56;;;;;;;14.82;5.95;;;;;;;;;;5078570;28;20028;-64
2022/05/22 09:53:47;;;;;;;16.30;5.80;;;;;;;;;;5082228;28;20033;-64
2022/05/22 09:56:36;;;;;;;12.18;5.72;;;;;;;;;;5084352;28;20136;-65
2022/05/22 09:59:16;;;;;;;13.23;5.90;;;;;;;;;;5086279;28;20036;-65
2022/05/22 10:01:44;;;;;;;15.05;6.32;;;;;;;;;;5100807;28;20036;-65
2022/05/22 10:04:32;;;;;;;14.05;6.13;;;;;;;;;;5094017;28;20448;-65
2022/05/22 10:07:01;;;;;;;13.30;6.78;;;;;;;;;;5083751;28;20024;-66
2022/05/22 10:09:41;;;;;;;16.23;7.63;;;;;;;;;;5089610;28;20050;-66
2022/05/22 10:12:15;;;;;;;14.40;6.75;;;;;;;;;;5080204;28;20058;-66
2022/05/22 10:14:53;;;;;;;21.75;7.25;;;;;;;;;;5081045;28;20146;-64
2022/05/22 10:17:30;;;;;;;12.63;7.18;;;;;;;;;;5082013;28;20216;-66
2022/05/22 10:20:02;;;;;;;15.73;7.72;;;;;;;;;;5093888;28;20031;-65
2022/05/22 10:22:31;;;;;;;16.90;7.57;;;;;;;;;;5089895;28;20042;-66
2022/05/22 10:25:27;;;;;;;13.57;7.20;;;;;;;;;;5094099;28;20537;-66
2022/05/22 10:27:58;;;;;;;16.77;8.10;;;;;;;;;;5089288;28;20071;-67
2022/05/22 10:30:36;;;;;;;13.80;7.28;;;;;;;;;;5089426;28;20391;-66
2022/05/22 10:33:21;;;;;;;20.30;7.97;;;;;;;;;;5088716;28;20101;-66
2022/05/22 10:35:52;;;;;;;15.10;7.60;;;;;;;;;;5090407;28;20027;-66
2022/05/22 10:38:21;;;;;;;14.10;7.03;;;;;;;;;;5088628;28;20039;-65
2022/05/22 10:43:35;;;;;;;15.48;6.78;;;;;;;;;;5081493;28;20035;-66
2022/05/22 10:46:01;;;;;;;15.90;6.80;;;;;;;;;;5081293;28;20015;-66
2022/05/22 10:48:28;;;;;;;15.73;8.02;;;;;;;;;;5079900;28;20027;-66
2022/05/22 10:51:02;;;;;;;16.13;7.97;;;;;;;;;;5082901;28;20464;-66
2022/05/22 10:53:46;;;;;;;14.20;7.93;;;;;;;;;;5094893;28;20497;-66
2022/05/22 10:56:17;;;;;;;16.50;7.38;;;;;;;;;;5081910;28;20387;-65
2022/05/22 10:58:54;;;;;;;14.35;7.10;;;;;;;;;;5089025;28;20028;-66
2022/05/22 11:01:22;;;;;;;14.18;7.30;;;;;;;;;;5093516;28;20612;-66
2022/05/22 11:03:48;;;;;;;18.80;7.55;;;;;;;;;;5083880;28;20029;-66
2022/05/22 11:06:20;;;;;;;14.50;6.30;;;;;;;;;;5084954;28;20023;-66
2022/05/22 11:08:50;;;;;;;14.90;7.47;;;;;;;;;;5082959;28;20031;-65
2022/05/22 11:11:18;;;;;;;12.88;6.78;;;;;;;;;;5088210;28;20039;-66
2022/05/22 11:13:45;;;;;;;11.40;5.90;;;;;;;;;;5082820;28;20424;-66
2022/05/22 11:16:20;;;;;;;14.55;5.60;;;;;;;;;;5091212;28;20099;-66
2022/05/22 11:18:46;;;;;;;13.07;6.13;;;;;;;;;;5086713;28;20063;-66
2022/05/22 11:21:22;;;;;;;12.70;6.07;;;;;;;;;;5084445;28;20047;-66
2022/05/22 11:23:59;;;;;;;11.73;6.50;;;;;;;;;;5088344;28;20031;-66
2022/05/22 11:26:34;;;;;;;10.48;5.72;;;;;;;;;;5091760;28;20391;-66
2022/05/22 11:29:20;;;;;;;12.45;4.95;;;;;;;;;;5091221;28;20028;-65
2022/05/22 11:32:05;;;;;;;12.10;5.30;;;;;;;;;;5091833;28;20089;-66
2022/05/22 11:34:40;;;;;;;14.52;6.00;;;;;;;;;;5088432;28;20729;-66
2022/05/22 11:37:21;;;;;;;13.30;5.30;;;;;;;;;;5085854;28;20032;-65
2022/05/22 11:40:03;;;;;;;12.70;5.60;;;;;;;;;;5097021;28;20434;-65
2022/05/22 11:42:40;;;;;;;12.23;6.43;;;;;;;;;;5084244;28;20030;-66
2022/05/22 11:45:06;;;;;;;16.15;5.95;;;;;;;;;;5092063;28;20016;-66
2022/05/22 11:47:34;;;;;;;11.00;5.30;;;;;;;;;;5088802;28;20058;-66
2022/05/22 11:50:00;;;;;;;11.10;4.85;;;;;;;;;;5079768;28;20060;-66
2022/05/22 11:55:38;;;;;;;11.15;5.20;;;;;;;;;;5090827;28;20097;-66
2022/05/22 11:58:22;;;;;;;11.57;4.80;;;;;;;;;;5086635;28;20484;-66
2022/05/22 12:01:12;;;;;;;10.23;4.25;;;;;;;;;;5081690;28;20031;-66
2022/05/22 12:03:46;;;;;;;11.30;4.90;;;;;;;;;;5101707;28;20030;-66
2022/05/22 12:06:15;;;;;;;12.48;5.25;;;;;;;;;;5092400;28;20093;-66
2022/05/22 12:09:07;;;;;;;11.15;4.75;;;;;;;;;;5081212;28;21657;-65
2022/05/22 12:11:42;;;;;;;11.07;5.15;;;;;;;;;;5091779;28;20024;-66
2022/05/22 12:14:27;;;;;;;9.75;4.65;;;;;;;;;;5078838;28;20336;-66
2022/05/22 12:17:13;;;;;;;13.88;5.40;;;;;;;;;;5088864;28;20085;-65
2022/05/22 12:19:39;;;;;;;7.82;4.80;;;;;;;;;;5075804;28;21212;-66
2022/05/22 12:22:19;;;;;;;11.23;4.82;;;;;;;;;;5086593;28;20031;-66
2022/05/22 12:24:55;;;;;;;13.90;5.50;;;;;;;;;;5087565;28;20031;-66
2022/05/22 12:27:25;;;;;;;12.57;4.82;;;;;;;;;;5076448;28;20028;-66
2022/05/22 12:30:00;;;;;;;9.80;4.53;;;;;;;;;;5081838;28;20036;-65
2022/05/22 12:32:28;;;;;;;10.50;4.47;;;;;;;;;;5074656;28;20081;-66
2022/05/22 12:34:55;;;;;;;9.45;4.97;;;;;;;;;;5091222;28;20038;-66
2022/05/22 12:37:24;;;;;;;10.40;5.10;;;;;;;;;;5087430;28;20016;-66
2022/05/22 12:40:04;;;;;;;10.93;5.45;;;;;;;;;;5095792;28;20495;-66
2022/05/22 12:42:32;;;;;;;12.27;5.05;;;;;;;;;;5084579;28;20144;-65
2022/05/22 12:44:58;;;;;;;9.15;4.82;;;;;;;;;;5085302;28;20309;-66
2022/05/22 12:47:33;;;;;;;8.57;4.18;;;;;;;;;;5080721;28;20056;-65
2022/05/22 12:49:59;;;;;;;10.27;4.40;;;;;;;;;;5076638;28;20028;-66
2022/05/22 12:52:28;;;;;;;11.20;4.25;;;;;;;;;;5086533;28;20031;-66
2022/05/22 12:54:58;;;;;;;13.45;4.68;;;;;;;;;;5093010;28;20067;-66
2022/05/22 12:57:24;;;;;;;6.93;3.72;;;;;;;;;;5088553;28;20035;-66
2022/05/22 12:59:55;;;;;;;9.55;3.90;;;;;;;;;;5085964;28;20035;-66
2022/05/22 13:02:41;;;;;;;7.57;3.50;;;;;;;;;;5089474;28;20149;-66
2022/05/22 13:05:13;;;;;;;7.57;3.60;;;;;;;;;;5086370;28;20108;-66
2022/05/22 13:07:39;;;;;;;7.20;3.75;;;;;;;;;;5086941;28;20525;-66
2022/05/22 13:10:20;;;;;;;9.57;3.50;;;;;;;;;;5087158;28;20114;-66
2022/05/22 13:12:51;;;;;;;10.15;3.97;;;;;;;;;;5082415;28;20028;-66
2022/05/22 13:15:23;;;;;;;6.50;4.32;;;;;;;;;;5085491;28;20055;-66
2022/05/22 13:17:50;;;;;;;10.73;3.67;;;;;;;;;;5093303;28;20028;-66
2022/05/22 13:20:35;;;;;;;11.93;4.70;;;;;;;;;;5083162;28;20511;-66
2022/05/22 13:23:21;;;;;;;15.18;5.00;;;;;;;;;;5089374;28;20103;-66
2022/05/22 13:25:48;;;;;;;12.35;5.60;;;;;;;;;;5090896;28;20499;-66
2022/05/22 13:28:42;;;;;;;14.15;5.10;;;;;;;;;;5089747;28;20034;-66
2022/05/22 13:31:11;;;;;;;12.00;4.90;;;;;;;;;;5075982;28;20088;-66
2022/05/22 13:33:48;;;;;;;13.50;4.20;;;;;;;;;;5086348;28;20042;-66
2022/05/22 13:36:24;;;;;;;11.02;3.70;;;;;;;;;;5080841;28;20024;-66
2022/05/22 13:38:54;;;;;;;11.15;3.97;;;;;;;;;;5086457;28;20041;-66
2022/05/22 13:41:20;;;;;;;7.57;3.80;;;;;;;;;;5086088;28;20024;-66
2022/05/22 13:44:04;;;;;;;10.68;3.30;;;;;;;;;;5088592;28;20053;-66
2022/05/22 13:46:33;;;;;;;10.55;4.07;;;;;;;;;;5088298;28;20043;-65
2022/05/22 13:49:02;;;;;;;9.80;4.07;;;;;;;;;;5091891;28;20030;-66
2022/05/22 13:54:38;;;;;;;7.88;3.45;;;;;;;;;;5087346;28;20497;-65
2022/05/22 13:57:13;;;;;;;6.43;3.08;;;;;;;;;;5083528;28;20030;-65
2022/05/22 13:59:49;;;;;;;9.93;4.03;;;;;;;;;;5076219;28;20035;-66
2022/05/22 14:02:17;;;;;;;10.68;4.32;;;;;;;;;;5085159;28;20023;-66
2022/05/22 14:04:45;;;;;;;9.68;4.43;;;;;;;;;;5083167;28;20017;-65
2022/05/22 14:07:19;;;;;;;8.93;3.97;;;;;;;;;;5088840;28;20051;-66
2022/05/22 14:09:45;;;;;;;11.10;3.97;;;;;;;;;;5086128;28;20101;-66
2022/05/22 14:12:14;;;;;;;9.38;3.75;;;;;;;;;;5083238;28;20035;-66
2022/05/22 14:14:40;;;;;;;11.68;4.55;;;;;;;;;;5087355;28;20111;-64
2022/05/22 14:17:08;;;;;;;8.70;4.00;;;;;;;;;;5083047;28;20036;-66
2022/05/22 14:19:35;;;;;;;10.25;3.83;;;;;;;;;;5096632;28;20027;-66
2022/05/22 14:22:20;;;;;;;8.57;3.33;;;;;;;;;;5096555;28;20110;-66
2022/05/22 14:24:54;;;;;;;12.10;3.95;;;;;;;;;;5086596;28;20023;-66
2022/05/22 14:27:35;;;;;;;12.55;4.35;;;;;;;;;;5090174;28;20074;-66
2022/05/22 14:30:09;;;;;;;9.55;3.78;;;;;;;;;;5090038;28;20115;-66
2022/05/22 14:32:35;;;;;;;10.93;3.47;;;;;;;;;;5081769;28;20035;-66
2022/05/22 14:35:03;;;;;;;12.75;3.70;;;;;;;;;;5081423;28;20082;-66
2022/05/22 14:37:37;;;;;;;13.50;3.80;;;;;;;;;;5091368;28;20116;-66
2022/05/22 14:40:03;;;;;;;8.77;3.10;;;;;;;;;;5088132;28;20028;-66
2022/05/22 14:42:31;;;;;;;8.77;3.70;;;;;;;;;;5083901;28;20088;-66
2022/05/22 14:45:02;;;;;;;10.82;3.25;;;;;;;;;;5084909;28;20207;-66
2022/05/22 14:47:30;;;;;;;11.15;4.22;;;;;;;;;;5079797;28;20032;-66
2022/05/22 14:49:57;;;;;;;6.78;3.50;;;;;;;;;;5082197;28;20035;-66
2022/05/22 14:52:27;;;;;;;10.70;3.60;;;;;;;;;;5078429;28;20095;-66
2022/05/22 14:54:56;;;;;;;7.75;3.33;;;;;;;;;;5087199;28;20035;-66
2022/05/22 14:57:22;;;;;;;9.82;3.78;;;;;;;;;;5087440;28;20074;-66
2022/05/22 14:59:56;;;;;;;10.25;2.95;;;;;;;;;;5083509;28;20442;-66
2022/05/22 15:02:28;;;;;;;10.07;3.40;;;;;;;;;;5086102;28;20028;-66
2022/05/22 15:04:54;;;;;;;8.77;2.65;;;;;;;;;;5077749;28;20027;-66
2022/05/22 15:07:26;;;;;;;7.95;3.00;;;;;;;;;;5085523;28;20020;-66
2022/05/22 15:09:57;;;;;;;9.30;2.47;;;;;;;;;;5090216;28;20094;-66